Time;durP1;ratioP1;P1;durP2;ratioP2;P2;SDS_P1;SDS_P2;PMS_P1;PMS_P2;Temp;Humidity;BMP_temperature;BMP_pressure;BME280_temperature;BME280_humidity;BME280_pressure;Samples;Min_cycle;Max_cycle;Signal;HPM_P1;HPM_P2
2022/04/12 04:30:58;;;;;;;;;3.00;3.00;;;;;16.08;48.26;100221.50;5086658;27;45564;-78
2022/04/12 04:33:23;;;;;;;;;5.50;2.50;;;;;16.07;48.32;100227.91;5075273;28;45272;-77
2022/04/12 04:35:49;;;;;;;;;3.75;2.75;;;;;15.95;48.25;100217.16;5075424;28;45382;-77
2022/04/12 04:38:15;;;;;;;;;5.00;2.75;;;;;15.94;48.61;100237.06;5062641;28;45340;-76
2022/04/12 04:40:41;;;;;;;;;4.00;3.00;;;;;15.92;48.62;100231.75;5054964;28;45544;-76
2022/04/12 04:43:07;;;;;;;;;4.00;4.00;;;;;15.90;48.59;100228.34;5055158;28;46341;-78
2022/04/12 04:45:33;;;;;;;;;3.00;3.00;;;;;15.73;49.38;100201.72;5036437;28;45350;-77
2022/04/12 04:48:01;;;;;;;;;3.00;3.00;;;;;15.85;49.27;100231.38;5057201;28;45290;-78
2022/04/12 04:50:30;;;;;;;;;3.75;3.00;;;;;15.82;49.28;100233.47;5061952;28;45486;-78
2022/04/12 04:52:57;;;;;;;;;2.00;2.00;;;;;15.77;49.00;100232.94;5059161;28;46314;-76
2022/04/12 04:55:22;;;;;;;;;2.75;2.50;;;;;15.65;49.77;100223.06;5055256;28;45324;-76
2022/04/12 04:57:48;;;;;;;;;4.00;3.00;;;;;15.68;49.66;100229.06;5055916;28;45392;-75
2022/04/12 05:00:16;;;;;;;;;3.00;3.00;;;;;15.65;49.82;100226.59;5053653;28;45509;-76
2022/04/12 05:02:53;;;;;;;;;2.75;2.75;;;;;15.64;50.13;100235.72;5054437;28;45511;-78
2022/04/12 05:05:20;;;;;;;;;4.00;4.00;;;;;15.63;50.02;100230.41;5054464;28;45469;-77
2022/04/12 05:07:48;;;;;;;;;3.25;3.25;;;;;15.60;50.03;100227.94;5054602;28;45528;-77
2022/04/12 05:10:15;;;;;;;;;3.00;3.00;;;;;15.51;49.89;100227.59;5054174;28;45335;-77
2022/04/12 05:12:41;;;;;;;;;4.75;4.75;;;;;15.48;49.87;100233.22;5055896;28;46114;-79
2022/04/12 05:15:07;;;;;;;;;3.00;3.00;;;;;15.56;50.10;100256.16;5042305;28;45324;-78
2022/04/12 05:17:33;;;;;;;;;3.25;3.25;;;;;15.51;50.20;100261.84;5043462;28;45383;-76
2022/04/12 05:19:59;;;;;;;;;6.00;5.00;;;;;15.46;50.27;100264.06;5054084;28;45575;-77
2022/04/12 05:22:25;;;;;;;;;5.75;4.00;;;;;15.48;50.49;100267.50;5036223;28;47160;-74
2022/04/12 05:24:51;;;;;;;;;4.00;3.00;;;;;15.45;50.64;100256.91;5054075;28;45463;-76
2022/04/12 05:27:17;;;;;;;;;4.50;4.00;;;;;15.40;50.44;100251.84;5053682;28;45247;-75
2022/04/12 05:29:43;;;;;;;;;4.50;4.00;;;;;15.39;50.26;100260.09;5053717;28;45818;-77
2022/04/12 05:32:09;;;;;;;;;7.25;4.75;;;;;15.38;50.53;100266.47;5054156;28;45546;-78
2022/04/12 05:34:36;;;;;;;;;4.50;4.00;;;;;15.31;50.16;100255.22;5054136;28;45308;-79
2022/04/12 05:37:03;;;;;;;;;4.75;4.75;;;;;15.40;50.61;100275.28;5057556;28;45497;-77
2022/04/12 05:39:28;;;;;;;;;5.75;3.50;;;;;15.36;50.51;100246.78;5072287;28;45362;-78
2022/04/12 05:41:53;;;;;;;;;8.50;4.00;;;;;15.34;50.29;100243.34;5054056;28;45466;-77
2022/04/12 05:44:19;;;;;;;;;3.00;3.00;;;;;15.30;50.04;100247.25;5053785;28;45474;-78
2022/04/12 05:46:44;;;;;;;;;4.00;3.00;;;;;15.44;50.02;100272.25;5053826;28;45563;-76
2022/04/12 05:49:09;;;;;;;;;4.50;4.50;;;;;15.49;50.20;100280.00;5053565;28;45410;-73
2022/04/12 05:51:35;;;;;;;;;4.00;3.75;;;;;15.44;49.56;100272.25;5054009;28;45350;-75
2022/04/12 05:54:00;;;;;;;;;4.75;4.00;;;;;15.46;49.07;100272.16;5053213;28;45300;-76
2022/04/12 05:56:26;;;;;;;;;5.00;4.00;;;;;15.50;48.88;100281.75;5054569;28;45289;-75
2022/04/12 05:58:51;;;;;;;;;5.00;3.50;;;;;15.41;49.26;100271.63;5053618;28;45522;-79
2022/04/12 06:01:16;;;;;;;;;4.25;3.00;;;;;15.46;49.17;100291.94;5053186;28;46619;-79
2022/04/12 06:03:42;;;;;;;;;4.00;3.00;;;;;15.39;49.49;100274.44;5054612;28;45767;-78
2022/04/12 06:06:07;;;;;;;;;2.00;2.00;;;;;15.42;49.07;100276.03;5063924;28;45221;-78
2022/04/12 06:08:33;;;;;;;;;3.00;3.00;;;;;15.46;49.07;100293.78;5053170;28;45406;-77
2022/04/12 06:10:58;;;;;;;;;3.00;3.00;;;;;15.42;49.02;100287.72;5053701;28;45982;-75
2022/04/12 06:13:24;;;;;;;;;3.25;3.25;;;;;15.54;48.81;100294.09;5038316;28;45434;-77
2022/04/12 06:15:49;;;;;;;;;3.25;3.00;;;;;15.55;48.74;100294.97;5057094;28;45319;-76
2022/04/12 06:18:15;;;;;;;;;3.50;3.50;;;;;15.40;48.58;100256.38;5056661;28;45316;-77
2022/04/12 06:20:40;;;;;;;;;4.25;3.00;;;;;15.54;48.67;100283.28;5056960;28;46114;-78
2022/04/12 06:23:05;;;;;;;;;5.50;5.00;;;;;15.39;48.42;100262.78;5057076;28;46065;-77
2022/04/12 06:25:31;;;;;;;;;5.50;3.75;;;;;15.56;48.59;100302.97;5056936;28;45445;-78
2022/04/12 06:27:56;;;;;;;;;4.00;4.00;;;;;15.52;48.64;100296.00;5056913;28;45362;-78
2022/04/12 06:30:24;;;;;;;;;3.00;3.00;;;;;15.43;48.80;100286.75;5064539;28;45470;-76
2022/04/12 06:32:50;;;;;;;;;4.25;4.00;;;;;15.56;48.31;100313.78;5060275;28;45281;-78
2022/04/12 06:35:15;;;;;;;;;6.25;5.25;;;;;15.49;48.12;100305.19;5056813;28;45523;-77
2022/04/12 06:37:42;;;;;;;;;4.00;3.25;;;;;15.54;48.40;100318.41;5063971;28;45315;-77
2022/04/12 06:40:10;;;;;;;;;3.50;3.00;;;;;15.58;48.08;100328.00;5068270;28;45664;-78
2022/04/12 06:42:36;;;;;;;;;4.00;3.00;;;;;15.52;48.25;100331.13;5056399;28;45314;-76
2022/04/12 06:45:02;;;;;;;;;3.00;3.00;;;;;15.48;48.08;100327.78;5056497;28;45345;-77
2022/04/12 06:47:28;;;;;;;;;5.25;3.50;;;;;15.26;48.06;100307.84;5056039;28;45676;-78
2022/04/12 06:49:54;;;;;;;;;4.50;4.50;;;;;15.39;47.89;100339.28;5056733;28;46087;-77
2022/04/12 06:52:21;;;;;;;;;7.00;4.00;;;;;15.37;48.50;100352.03;5056611;28;45560;-76
2022/04/12 06:54:47;;;;;;;;;4.50;4.00;;;;;15.25;48.85;100350.19;5038188;28;45215;-77
2022/04/12 06:57:12;;;;;;;;;4.25;4.25;;;;;15.25;48.84;100361.00;5056193;28;45343;-77
2022/04/12 06:59:39;;;;;;;;;4.00;4.00;;;;;15.15;48.87;100349.13;5056067;28;46210;-77
2022/04/12 07:02:05;;;;;;;;;5.00;3.25;;;;;15.10;48.47;100365.66;5055925;28;45458;-79
2022/04/12 07:04:31;;;;;;;;;6.75;4.50;;;;;15.14;48.98;100369.00;5056278;28;45323;-75
2022/04/12 07:06:57;;;;;;;;;3.00;3.00;;;;;15.08;48.71;100353.22;5056153;28;45323;-76
2022/04/12 07:09:23;;;;;;;;;4.00;3.00;;;;;15.20;48.69;100370.41;5056436;28;45353;-76
2022/04/12 07:11:52;;;;;;;;;3.50;3.50;;;;;15.24;48.39;100382.69;5056428;28;45478;-76
2022/04/12 07:14:17;;;;;;;;;4.50;4.50;;;;;15.24;48.13;100386.28;5056593;28;45480;-76
2022/04/12 07:16:43;;;;;;;;;4.75;3.50;;;;;15.14;48.52;100387.91;5055521;28;45492;-76
2022/04/12 07:19:08;;;;;;;;;4.75;3.75;;;;;15.13;48.18;100381.66;5064275;28;46055;-76
2022/04/12 07:21:34;;;;;;;;;4.50;3.50;;;;;15.17;48.04;100376.88;5076044;28;45667;-77
2022/04/12 07:24:00;;;;;;;;;2.50;2.50;;;;;15.32;47.51;100394.69;5057453;28;45350;-76
2022/04/12 07:26:26;;;;;;;;;4.25;3.00;;;;;15.29;47.82;100385.97;5066710;28;45311;-77
2022/04/12 07:28:51;;;;;;;;;4.50;3.25;;;;;15.34;47.73;100383.78;5076168;28;45343;-76
2022/04/12 07:31:17;;;;;;;;;4.00;4.00;;;;;15.43;47.47;100389.41;5074486;28;45490;-76
2022/04/12 07:33:42;;;;;;;;;3.00;3.00;;;;;15.44;47.31;100391.13;5076126;28;45283;-77
2022/04/12 07:36:07;;;;;;;;;5.00;4.00;;;;;15.54;47.24;100410.28;5076017;28;45438;-77
2022/04/12 07:38:33;;;;;;;;;3.25;3.25;;;;;15.44;47.52;100377.63;5060385;28;46150;-76
2022/04/12 07:40:59;;;;;;;;;4.00;4.00;;;;;15.56;47.60;100396.66;5055618;28;45177;-77
2022/04/12 07:43:24;;;;;;;;;3.75;3.00;;;;;15.65;47.54;100390.59;5056150;28;45300;-77
2022/04/12 07:45:50;;;;;;;;;4.25;4.00;;;;;15.74;47.37;100396.19;5055275;28;45323;-76
2022/04/12 07:48:15;;;;;;;;;5.00;4.00;;;;;15.84;47.22;100388.25;5055442;28;45279;-77
2022/04/12 07:50:40;;;;;;;;;3.50;3.50;;;;;15.92;47.09;100385.00;5055412;28;45186;-75
2022/04/12 07:53:06;;;;;;;;;4.50;4.50;;;;;16.02;46.84;100391.44;5055810;28;45509;-76
2022/04/12 07:55:31;;;;;;;;;5.25;3.00;;;;;16.10;46.60;100386.34;5037345;28;47261;-77
2022/04/12 07:57:57;;;;;;;;;4.00;4.00;;;;;16.19;46.39;100383.81;5037610;28;46323;-76
2022/04/12 08:00:22;;;;;;;;;7.00;4.00;;;;;16.26;45.59;100373.38;5055347;28;45300;-77
2022/04/12 08:02:48;;;;;;;;;4.50;2.00;;;;;16.35;46.01;100380.81;5055740;28;45363;-76
2022/04/12 08:05:14;;;;;;;;;3.75;3.00;;;;;16.45;46.04;100384.56;5055347;28;45475;-77
2022/04/12 08:07:44;;;;;;;;;4.00;2.50;;;;;16.48;45.29;100378.94;5055556;28;45560;-76
2022/04/12 08:10:10;;;;;;;;;5.00;4.00;;;;;16.52;45.34;100371.41;5055262;28;45257;-77
2022/04/12 08:12:35;;;;;;;;;3.50;3.00;;;;;16.57;45.20;100366.53;5055532;28;45332;-76
2022/04/12 08:15:02;;;;;;;;;4.00;3.00;;;;;16.64;45.56;100365.09;5054642;28;45231;-77
2022/04/12 08:17:27;;;;;;;;;4.25;4.00;;;;;16.81;45.27;100364.66;5054862;28;45535;-77
2022/04/12 08:19:53;;;;;;;;;4.00;3.00;;;;;16.90;44.76;100374.78;5054745;28;45477;-76
2022/04/12 08:22:18;;;;;;;;;5.00;3.00;;;;;16.94;44.80;100369.97;5055260;28;45391;-76
2022/04/12 08:24:43;;;;;;;;;4.00;4.00;;;;;16.99;44.22;100379.47;5054781;28;45642;-76
2022/04/12 08:27:09;;;;;;;;;3.75;3.00;;;;;16.98;44.50;100372.34;5054633;28;45487;-77
2022/04/12 08:29:34;;;;;;;;;5.00;3.50;;;;;17.03;44.55;100380.09;5056120;28;45479;-77
2022/04/12 08:31:59;;;;;;;;;3.75;2.00;;;;;17.07;43.94;100388.84;5065781;28;45348;-76
2022/04/12 08:34:25;;;;;;;;;1.00;1.00;;;;;17.11;43.80;100372.22;5054652;28;45335;-77
2022/04/12 08:36:50;;;;;;;;;0.50;0.50;;;;;17.23;43.54;100373.97;5036498;28;46784;-77
2022/04/12 08:39:15;;;;;;;;;2.25;2.00;;;;;17.27;43.55;100374.56;5072107;28;45460;-76
2022/04/12 08:41:41;;;;;;;;;3.00;2.00;;;;;17.35;43.28;100374.84;5055062;28;45353;-76
2022/04/12 08:44:07;;;;;;;;;1.25;1.25;;;;;17.40;43.09;100378.91;5054566;28;45907;-77
2022/04/12 08:46:36;;;;;;;;;4.75;2.00;;;;;17.43;43.04;100375.09;5054683;28;45334;-80
2022/04/12 08:49:01;;;;;;;;;1.00;1.00;;;;;17.38;42.21;100359.19;5054710;28;45483;-77
2022/04/12 08:51:30;;;;;;;;;2.75;1.75;;;;;17.49;42.08;100374.59;5054747;28;45158;-75
2022/04/12 08:53:59;;;;;;;;;2.25;2.25;;;;;17.52;41.85;100393.34;5036296;28;46092;-76
2022/04/12 08:56:26;;;;;;;;;1.00;1.00;;;;;17.45;41.92;100364.97;5054667;28;45283;-76
2022/04/12 08:58:51;;;;;;;;;3.50;2.00;;;;;17.50;42.03;100375.47;5054462;28;45331;-75
2022/04/12 09:01:16;;;;;;;;;1.75;1.75;;;;;17.59;41.78;100377.44;5054363;28;45520;-76
2022/04/12 09:03:42;;;;;;;;;2.50;2.00;;;;;17.63;41.83;100382.50;5054002;28;45462;-76
2022/04/12 09:06:10;;;;;;;;;3.00;2.00;;;;;17.61;41.58;100380.84;5035954;28;47001;-77
2022/04/12 09:08:35;;;;;;;;;2.75;1.00;;;;;17.62;41.55;100382.63;5053856;28;45415;-76
2022/04/12 09:11:07;;;;;;;;;2.00;1.00;;;;;17.66;41.78;100384.97;5054313;28;45385;-77
2022/04/12 09:13:33;;;;;;;;;3.00;2.00;;;;;17.69;41.70;100379.28;5053786;28;45272;-77
2022/04/12 09:15:59;;;;;;;;;3.25;2.00;;;;;17.75;41.37;100359.84;5053788;28;45312;-76
2022/04/12 09:18:31;;;;;;;;;4.00;3.00;;;;;17.76;42.01;100380.53;5053955;28;45311;-77
2022/04/12 09:21:30;;;;;;;;;3.00;1.00;;;;;17.60;42.04;100341.22;5054425;28;45277;-77
2022/04/12 09:23:56;;;;;;;;;2.25;1.00;;;;;17.86;41.96;100360.81;5054344;28;45528;-76
2022/04/12 09:26:28;;;;;;;;;3.25;1.00;;;;;17.88;41.60;100373.22;5053668;28;45346;-76
2022/04/12 09:28:57;;;;;;;;;2.75;2.00;;;;;17.83;41.83;100347.50;5054812;28;45489;-78
2022/04/12 09:31:22;;;;;;;;;1.00;0.00;;;;;17.75;41.74;100348.13;5054561;28;45494;-76
2022/04/12 09:33:50;;;;;;;;;2.00;1.00;;;;;17.87;41.84;100343.53;5054780;28;45296;-77
2022/04/12 09:36:15;;;;;;;;;2.00;1.00;;;;;17.93;41.90;100360.19;5054532;28;46002;-77
2022/04/12 09:38:42;;;;;;;;;1.00;0.00;;;;;17.89;42.00;100353.25;5070234;28;45297;-76
2022/04/12 09:41:20;;;;;;;;;5.50;2.00;;;;;17.94;42.03;100352.91;5055270;28;45557;-76
2022/04/12 09:44:08;;;;;;;;;3.00;1.25;;;;;18.02;42.04;100367.56;5053878;28;45478;-77
2022/04/12 09:46:36;;;;;;;;;6.25;2.50;;;;;18.07;41.92;100356.31;5054006;28;46557;-77
2022/04/12 09:49:02;;;;;;;;;2.25;2.00;;;;;18.09;42.24;100349.78;5056931;28;45466;-76
2022/04/12 09:51:28;;;;;;;;;4.00;3.00;;;;;18.17;42.05;100350.97;5057532;28;45320;-77
2022/04/12 09:53:54;;;;;;;;;2.50;1.25;;;;;18.23;41.78;100345.03;5053553;28;45505;-77
2022/04/12 09:56:23;;;;;;;;;3.00;3.00;;;;;18.26;41.45;100334.78;5056239;28;45584;-77
2022/04/12 09:58:51;;;;;;;;;4.50;2.00;;;;;18.30;41.59;100340.81;5057111;28;45454;-75
2022/04/12 10:01:18;;;;;;;;;2.00;2.00;;;;;18.38;41.86;100350.03;5057008;28;45236;-77
2022/04/12 10:03:46;;;;;;;;;2.00;1.50;;;;;18.43;41.30;100355.94;5056840;28;46191;-77
2022/04/12 10:06:15;;;;;;;;;3.00;1.00;;;;;18.49;41.83;100357.25;5057225;28;45462;-76
2022/04/12 10:08:42;;;;;;;;;3.00;2.00;;;;;18.51;42.01;100350.72;5056902;28;45279;-76
2022/04/12 10:11:08;;;;;;;;;3.25;2.00;;;;;18.67;41.87;100355.72;5057169;28;45469;-76
2022/04/12 10:13:33;;;;;;;;;4.50;2.75;;;;;18.76;42.02;100343.22;5056952;28;45380;-77
2022/04/12 10:15:59;;;;;;;;;1.00;1.00;;;;;18.77;41.30;100332.22;5038449;28;48411;-77
2022/04/12 10:18:25;;;;;;;;;1.75;1.75;;;;;18.84;41.47;100324.41;5057166;28;45356;-76
2022/04/12 10:20:51;;;;;;;;;5.25;3.00;;;;;18.90;41.51;100319.28;5057665;28;45311;-77
2022/04/12 10:23:19;;;;;;;;;4.25;2.50;;;;;18.85;41.49;100299.81;5058824;28;45486;-78
2022/04/12 10:25:50;;;;;;;;;1.00;1.00;;;;;19.02;41.25;100322.81;5057278;28;46141;-77
2022/04/12 10:28:17;;;;;;;;;2.00;2.00;;;;;19.05;41.36;100305.38;5041261;28;45438;-75
2022/04/12 10:30:43;;;;;;;;;1.50;1.50;;;;;19.12;40.73;100304.69;5056411;28;45364;-78
2022/04/12 10:33:24;;;;;;;;;2.00;2.00;;;;;19.25;41.13;100302.59;5057665;28;45505;-78
2022/04/12 10:35:54;;;;;;;;;1.50;1.00;;;;;19.35;40.74;100304.50;5068038;28;46942;-78
2022/04/12 10:38:20;;;;;;;;;4.75;2.00;;;;;19.44;40.70;100304.53;5066432;28;45518;-75
2022/04/12 10:40:56;;;;;;;;;2.75;1.50;;;;;19.53;40.35;100314.63;5065888;28;45606;-87
2022/04/12 10:43:30;;;;;;;;;3.00;3.00;;;;;19.64;40.53;100317.25;5061470;28;45388;-81
2022/04/12 10:45:57;;;;;;;;;1.75;1.75;;;;;19.55;40.42;100309.06;5065744;28;45271;-79
2022/04/12 10:48:27;;;;;;;;;2.50;2.50;;;;;19.56;40.16;100324.38;5063348;28;45606;-83
2022/04/12 10:50:55;;;;;;;;;2.75;1.75;;;;;19.56;40.09;100321.66;5066322;28;45611;-79
2022/04/12 10:53:36;;;;;;;;;4.00;1.25;;;;;19.59;40.32;100340.41;5061701;28;45959;-82
2022/04/12 10:56:09;;;;;;;;;1.75;1.75;;;;;19.51;40.12;100323.91;5063747;28;45504;-80
2022/04/12 10:58:35;;;;;;;;;5.00;2.75;;;;;19.48;40.24;100322.31;5066160;28;45391;-78
2022/04/12 11:01:02;;;;;;;;;2.50;2.00;;;;;19.63;40.44;100333.69;5066913;28;45491;-79
2022/04/12 11:03:40;;;;;;;;;3.00;2.00;;;;;19.78;40.09;100343.19;5046073;28;46222;-78
2022/04/12 11:06:10;;;;;;;;;3.25;2.00;;;;;19.82;40.44;100344.63;5062101;28;45649;-74
2022/04/12 11:08:35;;;;;;;;;4.25;3.00;;;;;19.97;40.45;100366.88;5058831;28;45475;-73
2022/04/12 11:11:00;;;;;;;;;2.50;2.00;;;;;20.12;39.90;100367.31;5056230;28;45353;-72
2022/04/12 11:13:30;;;;;;;;;2.75;2.75;;;;;20.12;39.90;100368.19;5056112;28;45402;-72
2022/04/12 11:15:59;;;;;;;;;2.25;2.00;;;;;20.10;39.88;100366.59;5055795;28;46336;-72
2022/04/12 11:18:44;;;;;;;;;2.50;1.50;;;;;20.17;39.85;100379.50;5055517;28;45514;-73
2022/04/12 11:21:09;;;;;;;;;4.25;2.50;;;;;20.18;39.83;100370.34;5055696;28;45281;-72
2022/04/12 11:23:48;;;;;;;;;2.75;2.00;;;;;20.15;39.74;100376.06;5055733;28;45394;-73
2022/04/12 11:26:40;;;;;;;;;2.00;2.00;;;;;20.26;39.72;100369.63;5050952;28;46218;-72
2022/04/12 11:29:10;;;;;;;;;3.75;2.25;;;;;20.34;39.84;100367.94;5055781;28;45407;-72
2022/04/12 11:31:40;;;;;;;;;4.75;3.50;;;;;20.50;39.07;100361.09;5055181;28;45303;-72
2022/04/12 11:34:07;;;;;;;;;3.50;1.50;;;;;20.67;38.70;100369.38;5055575;28;45512;-71
2022/04/12 11:36:32;;;;;;;;;1.75;0.75;;;;;20.65;38.95;100360.53;5055236;28;45497;-70
2022/04/12 11:38:57;;;;;;;;;1.00;1.00;;;;;20.81;38.78;100368.09;5055948;28;45402;-74
2022/04/12 11:41:23;;;;;;;;;4.75;2.50;;;;;20.88;38.59;100361.06;5056104;28;45366;-71
2022/04/12 11:43:58;;;;;;;;;3.00;1.50;;;;;21.01;38.26;100366.22;5055579;28;45207;-72
2022/04/12 11:46:23;;;;;;;;;3.00;2.00;;;;;21.14;38.17;100361.31;5055384;28;45385;-72
2022/04/12 11:48:49;;;;;;;;;3.00;2.00;;;;;21.27;37.45;100350.09;5055266;28;45242;-73
2022/04/12 11:51:17;;;;;;;;;4.50;2.75;;;;;21.36;37.27;100369.16;5055752;28;45540;-72
2022/04/12 11:53:48;;;;;;;;;2.00;2.00;;;;;21.31;37.10;100356.97;5055367;28;46127;-70
2022/04/12 11:56:13;;;;;;;;;3.00;2.00;;;;;21.61;36.70;100364.88;5055317;28;46117;-72
2022/04/12 11:58:38;;;;;;;;;1.00;1.00;;;;;21.56;36.76;100363.63;5055419;28;45335;-72
2022/04/12 12:01:04;;;;;;;;;3.25;1.50;;;;;21.58;36.94;100358.91;5055317;28;45414;-72
2022/04/12 12:03:31;;;;;;;;;2.00;2.00;;;;;21.82;36.54;100360.06;5055339;28;45291;-72
2022/04/12 12:05:57;;;;;;;;;5.00;3.00;;;;;22.05;36.31;100346.88;5055353;28;46177;-72
2022/04/12 12:08:23;;;;;;;;;4.50;2.50;;;;;22.33;36.13;100352.31;5055098;28;45414;-72
2022/04/12 12:10:52;;;;;;;;;3.25;1.00;;;;;22.50;35.43;100346.84;5055224;28;45346;-73
2022/04/12 12:13:23;;;;;;;;;4.00;4.00;;;;;22.62;35.46;100356.53;5055082;28;45556;-72
2022/04/12 12:15:48;;;;;;;;;1.00;1.00;;;;;22.89;35.29;100355.56;5054996;28;46098;-72
2022/04/12 12:18:15;;;;;;;;;2.50;0.75;;;;;23.21;34.37;100359.59;5054904;28;45632;-72
2022/04/12 12:20:41;;;;;;;;;1.00;1.00;;;;;23.42;34.25;100353.72;5055498;28;45269;-73
2022/04/12 12:23:10;;;;;;;;;1.75;1.75;;;;;23.67;33.40;100359.19;5036648;28;45475;-73
2022/04/12 12:25:40;;;;;;;;;1.50;1.50;;;;;23.93;33.26;100363.75;5058490;28;46629;-72
2022/04/12 12:28:18;;;;;;;;;2.50;0.50;;;;;24.29;32.60;100358.91;5058233;28;45268;-72
2022/04/12 12:30:46;;;;;;;;;1.00;1.00;;;;;24.52;31.90;100349.03;5054632;28;46389;-72
2022/04/12 12:33:13;;;;;;;;;2.50;1.25;;;;;24.55;31.43;100367.00;5054512;28;45508;-71
2022/04/12 12:35:44;;;;;;;;;5.00;2.00;;;;;24.73;31.21;100359.50;5054773;28;46061;-73
2022/04/12 12:38:14;;;;;;;;;1.00;1.00;;;;;24.83;31.69;100369.28;5066399;28;45224;-73
2022/04/12 12:40:42;;;;;;;;;1.00;1.00;;;;;24.34;31.92;100372.97;5061734;28;45507;-72
2022/04/12 12:43:09;;;;;;;;;3.00;1.25;;;;;24.08;32.30;100357.44;5054882;28;45343;-73
2022/04/12 12:45:39;;;;;;;;;1.50;0.50;;;;;24.05;32.69;100367.91;5068247;28;46019;-72
2022/04/12 12:48:07;;;;;;;;;3.00;2.00;;;;;23.81;33.17;100378.75;5074607;28;45428;-72
2022/04/12 12:50:38;;;;;;;;;1.50;1.50;;;;;23.60;32.66;100333.50;5074933;28;45365;-71
2022/04/12 12:53:05;;;;;;;;;2.75;1.00;;;;;23.83;32.89;100388.50;5074648;28;45466;-73
2022/04/12 12:55:33;;;;;;;;;2.00;2.00;;;;;24.08;32.53;100376.63;5074587;28;46262;-72
2022/04/12 12:58:07;;;;;;;;;2.25;2.25;;;;;24.12;32.84;100404.56;5074709;28;45379;-72
2022/04/12 13:00:34;;;;;;;;;4.50;2.25;;;;;24.19;32.75;100383.69;5074530;28;45475;-73
2022/04/12 13:03:05;;;;;;;;;2.75;1.50;;;;;24.29;32.22;100391.78;5074478;28;45488;-71
2022/04/12 13:05:32;;;;;;;;;1.50;1.50;;;;;23.89;32.36;100401.56;5074200;28;46337;-72
2022/04/12 13:08:00;;;;;;;;;1.00;1.00;;;;;23.52;33.05;100407.34;5074397;28;45280;-73
2022/04/12 13:10:29;;;;;;;;;1.75;0.75;;;;;23.14;33.25;100405.84;5074725;28;45326;-73
2022/04/12 13:12:54;;;;;;;;;2.25;1.25;;;;;23.50;33.20;100406.63;5074239;28;46155;-73
2022/04/12 13:15:20;;;;;;;;;2.25;1.75;;;;;24.33;31.74;100402.25;5074129;28;45890;-71
2022/04/12 13:17:46;;;;;;;;;3.50;1.25;;;;;25.11;30.93;100412.81;5074549;28;45579;-72
2022/04/12 13:20:14;;;;;;;;;1.50;1.25;;;;;25.19;30.54;100413.69;5074468;28;45347;-73
2022/04/12 13:22:40;;;;;;;;;2.50;2.00;;;;;25.70;30.18;100400.56;5076439;28;45516;-72
2022/04/12 13:25:06;;;;;;;;;2.25;1.50;;;;;26.25;29.95;100411.53;5077784;28;46815;-73
2022/04/12 13:27:32;;;;;;;;;2.75;0.75;;;;;26.79;29.26;100408.81;5070461;28;45436;-72
2022/04/12 13:29:57;;;;;;;;;1.50;0.50;;;;;26.94;28.71;100395.16;5072366;28;45571;-73
2022/04/12 13:32:23;;;;;;;;;2.25;1.25;;;;;27.59;27.13;100405.56;5070373;28;45196;-73
2022/04/12 13:34:50;;;;;;;;;3.00;1.50;;;;;27.95;26.78;100400.16;5077925;28;46039;-72
2022/04/12 13:37:16;;;;;;;;;2.75;0.75;;;;;28.18;25.87;100410.06;5073056;28;45311;-72
2022/04/12 13:39:41;;;;;;;;;0.75;0.75;;;;;28.71;26.89;100391.38;5070911;28;45584;-73
2022/04/12 13:42:07;;;;;;;;;1.00;1.00;;;;;28.37;25.65;100385.69;5057438;28;45390;-72
2022/04/12 13:44:34;;;;;;;;;2.00;0.75;;;;;28.53;25.50;100383.53;5057085;28;45405;-72
2022/04/12 13:47:01;;;;;;;;;2.75;1.00;;;;;28.86;25.93;100385.81;5057460;28;45378;-72
2022/04/12 13:49:28;;;;;;;;;2.50;1.00;;;;;28.90;25.21;100393.50;5057261;28;45303;-73
2022/04/12 13:51:55;;;;;;;;;1.25;1.25;;;;;29.03;24.76;100392.78;5057378;28;45300;-73
2022/04/12 13:54:20;;;;;;;;;5.00;2.50;;;;;28.94;24.85;100386.53;5056875;28;45347;-72
2022/04/12 13:56:46;;;;;;;;;1.25;1.00;;;;;29.22;24.86;100388.47;5057352;28;45496;-72
2022/04/12 13:59:11;;;;;;;;;0.00;0.00;;;;;29.39;24.54;100405.63;5057420;28;45335;-72
2022/04/12 14:01:36;;;;;;;;;2.50;2.00;;;;;29.30;23.96;100396.63;5057242;28;45470;-72
2022/04/12 14:04:02;;;;;;;;;0.75;0.75;;;;;29.24;24.80;100392.75;5056895;28;46115;-72
2022/04/12 14:06:28;;;;;;;;;1.75;1.75;;;;;29.23;24.70;100387.44;5057152;28;45267;-73
2022/04/12 14:08:53;;;;;;;;;1.75;0.75;;;;;29.33;25.01;100397.09;5057225;28;45517;-72
2022/04/12 14:11:19;;;;;;;;;1.00;1.00;;;;;28.97;25.01;100411.00;5057255;28;45498;-73
2022/04/12 14:13:44;;;;;;;;;3.00;0.75;;;;;28.83;25.21;100403.63;5056954;28;46341;-73
2022/04/12 14:16:11;;;;;;;;;0.00;0.00;;;;;28.65;25.06;100427.16;5056826;28;45343;-73
2022/04/12 14:18:37;;;;;;;;;2.00;1.00;;;;;28.54;25.83;100411.97;5057120;28;45441;-73
2022/04/12 14:21:06;;;;;;;;;1.00;1.00;;;;;28.03;26.20;100413.84;5057301;28;45721;-73
2022/04/12 14:23:32;;;;;;;;;2.00;2.00;;;;;27.74;26.43;100406.44;5056585;28;47082;-72
2022/04/12 14:25:57;;;;;;;;;1.50;1.50;;;;;27.92;26.16;100400.53;5056931;28;45297;-73
2022/04/12 14:28:22;;;;;;;;;3.50;1.75;;;;;27.89;26.06;100399.03;5056890;28;45458;-73
2022/04/12 14:30:48;;;;;;;;;1.75;1.75;;;;;27.84;26.56;100409.75;5068083;28;45385;-73
2022/04/12 14:33:13;;;;;;;;;4.00;1.25;;;;;27.53;26.65;100401.66;5057189;28;46259;-71
2022/04/12 14:35:39;;;;;;;;;2.25;1.75;;;;;27.76;26.88;100410.72;5056828;28;45354;-73
2022/04/12 14:38:04;;;;;;;;;1.25;1.25;;;;;27.62;26.63;100413.47;5067031;28;45512;-73
2022/04/12 14:40:30;;;;;;;;;2.00;2.00;;;;;27.28;27.52;100405.69;5064867;28;45266;-72
2022/04/12 14:42:55;;;;;;;;;3.50;2.00;;;;;27.29;27.38;100405.50;5056217;28;45201;-73
2022/04/12 14:45:22;;;;;;;;;0.25;0.25;;;;;27.36;27.91;100406.47;5056651;28;45349;-72
2022/04/12 14:47:50;;;;;;;;;3.75;1.75;;;;;27.16;28.01;100408.03;5056465;28;45502;-73
2022/04/12 14:50:16;;;;;;;;;4.75;1.25;;;;;26.82;28.63;100402.09;5056323;28;45237;-72
2022/04/12 14:52:42;;;;;;;;;0.00;0.00;;;;;26.54;28.74;100419.09;5056194;28;46429;-72
2022/04/12 14:55:08;;;;;;;;;1.75;1.75;;;;;26.61;28.95;100397.25;5056622;28;45329;-73
2022/04/12 14:57:35;;;;;;;;;1.75;1.75;;;;;26.51;28.94;100429.63;5056324;28;45489;-73
2022/04/12 15:00:03;;;;;;;;;3.00;1.75;;;;;26.21;29.55;100423.91;5056151;28;45266;-71
2022/04/12 15:02:30;;;;;;;;;3.00;1.75;;;;;25.69;29.74;100420.00;5055663;28;45258;-75
2022/04/12 15:04:55;;;;;;;;;4.25;2.50;;;;;25.46;30.48;100447.28;5056031;28;45634;-73
2022/04/12 15:07:20;;;;;;;;;2.00;2.00;;;;;25.43;30.83;100422.94;5056138;28;45324;-73
2022/04/12 15:09:46;;;;;;;;;3.00;2.00;;;;;25.35;31.12;100442.16;5056453;28;45309;-73
2022/04/12 15:12:11;;;;;;;;;2.00;2.00;;;;;25.10;31.42;100444.88;5056248;28;45273;-73
2022/04/12 15:14:37;;;;;;;;;2.00;2.00;;;;;25.22;31.74;100431.69;5056317;28;45312;-72
2022/04/12 15:17:02;;;;;;;;;1.75;1.75;;;;;25.21;31.74;100440.94;5055987;28;45351;-73
2022/04/12 15:19:28;;;;;;;;;4.25;2.00;;;;;24.77;32.23;100433.00;5037791;28;45611;-73
2022/04/12 15:21:53;;;;;;;;;3.50;2.00;;;;;24.89;32.59;100453.59;5055724;28;46082;-73
2022/04/12 15:24:25;;;;;;;;;5.00;3.75;;;;;24.82;32.61;100454.44;5056000;28;45244;-73
2022/04/12 15:26:53;;;;;;;;;2.00;2.00;;;;;24.50;33.38;100464.28;5055824;28;45296;-73
2022/04/12 15:29:19;;;;;;;;;2.00;2.00;;;;;24.09;33.94;100466.00;5055835;28;45507;-72
2022/04/12 15:31:45;;;;;;;;;4.50;3.00;;;;;23.86;34.62;100459.38;5067526;28;45456;-72
2022/04/12 15:34:10;;;;;;;;;1.00;1.00;;;;;23.86;34.51;100458.50;5055804;28;45225;-71
2022/04/12 15:36:35;;;;;;;;;2.75;2.00;;;;;23.73;34.93;100448.03;5037531;28;45589;-70
2022/04/12 15:39:01;;;;;;;;;3.00;3.00;;;;;23.73;35.08;100464.44;5068669;28;45473;-74
2022/04/12 15:41:26;;;;;;;;;3.00;2.00;;;;;23.58;35.68;100475.09;5055498;28;46371;-72
2022/04/12 15:43:52;;;;;;;;;1.00;1.00;;;;;23.47;36.06;100463.53;5055948;28;45261;-73
2022/04/12 15:46:19;;;;;;;;;2.75;1.75;;;;;23.15;36.58;100478.66;5054881;28;45324;-72
2022/04/12 15:48:45;;;;;;;;;3.00;2.00;;;;;23.08;37.09;100476.72;5055439;28;45525;-73
2022/04/12 15:51:12;;;;;;;;;3.25;1.75;;;;;22.80;37.21;100473.19;5055554;28;45386;-73
2022/04/12 15:53:38;;;;;;;;;2.50;2.25;;;;;22.80;37.58;100501.38;5055431;28;45376;-73